Assonet, Massachusetts
Current Conditions -  °F | °C
As of 9:52 PM on Saturday 24 Jan 2015 (Local Time) from KTAN Reporting Station
Scattered Clouds Scattered Clouds  
Wind Chill: 28°   Ceiling: Unl
Heat Index: 33°   Visibility: 10mi
Dew Point: 30°   Wind: 6mph
Humidity: 89%   Direction: 300°WNW
Pressure: 29.27"   Gusts: NA
Location:  41.8°N, 71.07°W
Report Text: KTAN 250252Z AUTO 30005KT 10SM SCT110 01/M01 A2927 RMK AO2 SNE08 SLP910 P0000 60004 I1000 I3000 T00061011 52029
Loading
Personal Weather Stations






























Interactive Weather Map New forecast layout! Learn more

10-Day Weather Forecast

Advertisements
Track Severe Weather on mobile